Time;durP1;ratioP1;P1;durP2;ratioP2;P2;SDS_P1;SDS_P2;PMS_P1;PMS_P2;Temp;Humidity;BMP_temperature;BMP_pressure;BME280_temperature;BME280_humidity;BME280_pressure;Samples;Min_cycle;Max_cycle;Signal;HPM_P1;HPM_P2
2023/05/20 00:02:11;;;;;;;11.88;6.35;;;;;;;18.78;67.05;98470.44;4440974;32;20154;-83
2023/05/20 00:04:40;;;;;;;12.65;6.30;;;;;;;18.77;67.56;98466.97;4441098;32;20093;-83
2023/05/20 00:07:08;;;;;;;12.30;6.37;;;;;;;18.94;66.63;98463.22;4440702;32;20166;-83
2023/05/20 00:09:35;;;;;;;12.77;5.93;;;;;;;19.66;64.13;98471.13;4440960;32;20082;-83
2023/05/20 00:12:02;;;;;;;11.75;6.15;;;;;;;18.64;68.17;98466.16;4441069;32;20488;-83
2023/05/20 00:14:28;;;;;;;11.57;6.07;;;;;;;18.49;69.03;98462.78;4440715;32;20093;-83
2023/05/20 00:16:55;;;;;;;13.18;6.90;;;;;;;18.91;67.83;98462.56;4441037;32;20097;-83
2023/05/20 00:19:22;;;;;;;12.48;6.43;;;;;;;19.08;67.53;98464.84;4440492;32;20161;-83
2023/05/20 00:21:49;;;;;;;13.05;6.95;;;;;;;19.19;66.95;98462.28;4441074;32;20093;-83
2023/05/20 00:24:16;;;;;;;12.88;6.93;;;;;;;18.64;68.14;98458.31;4440968;32;20129;-83
2023/05/20 00:26:43;;;;;;;14.18;7.10;;;;;;;18.00;71.82;98454.81;4440587;32;20476;-83
2023/05/20 00:29:10;;;;;;;17.48;7.28;;;;;;;17.92;73.29;98446.66;4440704;32;20153;-83
2023/05/20 00:31:37;;;;;;;14.87;8.02;;;;;;;18.12;72.54;98443.53;4440871;32;20145;-83
2023/05/20 00:34:04;;;;;;;15.30;8.20;;;;;;;18.22;73.89;98443.78;4440561;32;20093;-83
2023/05/20 00:36:31;;;;;;;17.83;8.75;;;;;;;18.09;75.38;98441.16;4440840;32;20124;-83
2023/05/20 00:38:58;;;;;;;14.85;8.50;;;;;;;18.59;73.20;98452.53;4440747;32;20100;-83
2023/05/20 00:41:26;;;;;;;14.70;7.47;;;;;;;19.28;69.89;98440.72;4440457;32;20157;-83
2023/05/20 00:43:53;;;;;;;14.63;7.50;;;;;;;19.37;69.03;98442.66;4440781;32;20085;-83
2023/05/20 00:46:23;;;;;;;16.02;7.10;;;;;;;19.23;68.36;98440.19;4440769;32;20487;-83
2023/05/20 00:48:50;;;;;;;15.00;7.72;;;;;;;18.66;70.84;98439.91;4438958;32;20372;-83
2023/05/20 00:51:17;;;;;;;13.15;7.47;;;;;;;17.74;76.92;98437.41;4440714;32;20113;-83
2023/05/20 00:53:45;;;;;;;13.32;6.93;;;;;;;17.77;76.54;98437.22;4439445;32;20186;-83
2023/05/20 00:56:12;;;;;;;11.45;5.47;;;;;;;17.98;75.02;98430.59;4440306;32;20139;-83
2023/05/20 00:58:39;;;;;;;12.37;6.00;;;;;;;18.36;71.83;98432.38;4440383;32;20143;-83
2023/05/20 01:01:06;;;;;;;12.60;6.10;;;;;;;18.48;70.67;98440.19;4440600;32;20485;-83
2023/05/20 01:03:33;;;;;;;12.23;5.47;;;;;;;19.04;64.45;98432.00;4440321;32;20444;-83
2023/05/20 01:06:01;;;;;;;12.00;5.55;;;;;;;18.85;64.55;98432.47;4440608;32;20105;-83
2023/05/20 01:08:28;;;;;;;14.05;6.28;;;;;;;19.10;62.36;98423.72;4440029;32;20128;-83
2023/05/20 01:11:15;;;;;;;10.82;5.18;;;;;;;18.98;61.52;98421.97;4440509;32;20093;-83
2023/05/20 01:13:46;;;;;;;12.00;5.62;;;;;;;18.10;65.21;98419.31;4439436;32;20113;-83
2023/05/20 01:16:14;;;;;;;12.85;5.55;;;;;;;17.80;65.33;98416.97;4439014;32;20104;-83
2023/05/20 01:18:42;;;;;;;12.60;5.90;;;;;;;18.01;64.22;98412.09;4440295;32;20104;-83
2023/05/20 01:21:11;;;;;;;10.88;5.78;;;;;;;17.75;65.10;98411.22;4440406;32;20510;-83
2023/05/20 01:23:39;;;;;;;12.18;6.25;;;;;;;17.63;65.60;98412.00;4440136;32;20101;-83
2023/05/20 01:26:07;;;;;;;12.02;6.20;;;;;;;17.70;65.56;98409.84;4440402;32;20097;-83
2023/05/20 01:28:37;;;;;;;15.23;6.20;;;;;;;18.01;64.72;98408.66;4440097;32;20100;-83
2023/05/20 01:31:07;;;;;;;13.15;6.37;;;;;;;18.08;65.18;98412.53;4439885;32;20132;-83
2023/05/20 01:33:35;;;;;;;12.40;6.03;;;;;;;18.39;63.83;98403.41;4440234;32;20148;-83
2023/05/20 01:36:02;;;;;;;12.00;5.70;;;;;;;17.76;66.00;98414.69;4439114;32;20125;-83
2023/05/20 01:38:30;;;;;;;13.32;6.40;;;;;;;17.79;65.58;98423.13;4439665;32;20102;-83
2023/05/20 01:40:58;;;;;;;17.02;6.10;;;;;;;18.20;65.00;98419.53;4440116;32;20412;-83
2023/05/20 01:43:26;;;;;;;14.02;7.07;;;;;;;17.69;67.19;98422.06;4439802;32;20432;-83
2023/05/20 01:45:52;;;;;;;12.35;6.60;;;;;;;17.54;68.55;98407.37;4438947;32;20085;-83
2023/05/20 01:48:19;;;;;;;13.25;6.62;;;;;;;17.47;69.50;98414.78;4439779;32;20100;-83
2023/05/20 01:50:46;;;;;;;12.93;6.37;;;;;;;17.58;71.32;98417.53;4439792;32;20105;-83
2023/05/20 01:53:13;;;;;;;14.13;7.30;;;;;;;17.34;73.05;98421.72;4439991;32;20118;-83
2023/05/20 01:55:40;;;;;;;14.35;7.60;;;;;;;17.25;76.25;98424.91;4440034;32;20085;-83
2023/05/20 01:58:07;;;;;;;14.48;7.57;;;;;;;17.44;75.11;98417.59;4439512;32;20109;-83
2023/05/20 02:00:34;;;;;;;17.08;7.95;;;;;;;17.76;73.70;98423.34;4439832;32;20116;-83
2023/05/20 02:03:02;;;;;;;17.02;8.32;;;;;;;17.80;72.93;98423.97;4439873;32;20085;-83
2023/05/20 02:05:29;;;;;;;15.05;7.95;;;;;;;18.95;66.30;98425.66;4441187;32;20112;-83
2023/05/20 02:07:56;;;;;;;15.55;7.30;;;;;;;18.68;67.87;98430.19;4441777;32;20085;-83
2023/05/20 02:10:23;;;;;;;14.55;7.68;;;;;;;18.00;70.32;98425.25;4441731;32;20097;-83
2023/05/20 02:12:50;;;;;;;13.35;6.75;;;;;;;17.44;71.41;98416.72;4441465;32;20432;-83
2023/05/20 02:15:17;;;;;;;16.70;6.57;;;;;;;17.72;69.46;98416.63;4441806;32;20149;-83
2023/05/20 02:17:45;;;;;;;15.25;5.95;;;;;;;16.87;72.71;98416.91;4441722;32;20150;-83
2023/05/20 02:20:12;;;;;;;13.62;5.55;;;;;;;17.27;70.02;98420.44;4441235;32;20463;-83
2023/05/20 02:22:39;;;;;;;11.30;5.07;;;;;;;17.61;68.12;98413.88;4441945;32;20092;-83
2023/05/20 02:25:07;;;;;;;11.30;5.50;;;;;;;17.67;67.46;98412.66;4441762;32;20153;-83
2023/05/20 02:27:34;;;;;;;11.85;5.53;;;;;;;17.52;67.58;98414.47;4441185;32;20158;-83
2023/05/20 02:30:01;;;;;;;12.07;5.07;;;;;;;18.06;63.75;98414.38;4441576;32;20157;-83
2023/05/20 02:32:28;;;;;;;12.60;5.22;;;;;;;17.86;63.90;98415.72;4441701;32;20089;-83
2023/05/20 02:34:55;;;;;;;12.43;4.90;;;;;;;17.43;64.86;98413.28;4441405;32;20094;-83
2023/05/20 02:37:22;;;;;;;11.90;6.10;;;;;;;17.26;65.61;98410.94;4441665;32;20113;-83
2023/05/20 02:39:49;;;;;;;14.40;6.12;;;;;;;17.57;65.06;98410.63;4441288;32;20111;-83
2023/05/20 02:42:16;;;;;;;12.73;6.78;;;;;;;17.94;64.26;98410.84;4441666;32;20100;-83
2023/05/20 02:44:43;;;;;;;15.52;7.60;;;;;;;17.90;64.79;98419.81;4441604;32;20132;-83
2023/05/20 02:47:10;;;;;;;13.90;7.37;;;;;;;18.62;63.94;98423.59;4441237;32;20156;-83
2023/05/20 02:49:36;;;;;;;15.80;8.32;;;;;;;18.12;66.05;98420.03;4441284;32;20097;-83
2023/05/20 02:52:04;;;;;;;14.10;6.90;;;;;;;17.74;68.03;98417.38;4441531;32;20097;-83
2023/05/20 02:54:31;;;;;;;15.48;7.93;;;;;;;17.30;69.86;98428.06;4441101;32;20093;-83
2023/05/20 02:56:58;;;;;;;14.45;7.87;;;;;;;17.52;69.10;98422.28;4441545;32;20134;-83
2023/05/20 02:59:25;;;;;;;15.35;7.75;;;;;;;18.33;66.08;98425.59;4441018;32;20515;-83
2023/05/20 03:01:52;;;;;;;16.05;7.62;;;;;;;17.93;68.03;98425.66;4441127;32;20094;-83
2023/05/20 03:04:20;;;;;;;14.43;7.93;;;;;;;17.51;69.98;98431.06;4441452;32;20104;-83
2023/05/20 03:06:47;;;;;;;14.70;7.72;;;;;;;17.73;69.06;98425.31;4441536;32;20100;-83
2023/05/20 03:09:14;;;;;;;19.45;8.15;;;;;;;17.72;69.06;98428.84;4440765;32;20123;-83
2023/05/20 03:11:41;;;;;;;13.05;7.30;;;;;;;17.72;69.02;98437.50;4441528;32;20093;-83
2023/05/20 03:14:08;;;;;;;15.85;7.55;;;;;;;18.11;67.21;98439.28;4441271;32;20515;-83
2023/05/20 03:16:35;;;;;;;16.33;7.90;;;;;;;18.59;64.34;98442.06;4440251;32;20089;-83
2023/05/20 03:19:02;;;;;;;16.02;8.52;;;;;;;18.11;65.61;98433.22;4441154;32;20445;-83
2023/05/20 03:21:29;;;;;;;17.58;8.90;;;;;;;18.25;66.09;98447.94;4441381;32;20089;-83
2023/05/20 03:23:56;;;;;;;17.45;9.68;;;;;;;17.91;69.35;98442.38;4441033;32;20576;-83
2023/05/20 03:26:24;;;;;;;17.98;9.60;;;;;;;17.51;73.08;98444.09;4441229;32;20093;-83
2023/05/20 03:28:51;;;;;;;16.67;9.65;;;;;;;17.61;73.50;98439.97;4440760;32;20166;-83
2023/05/20 03:31:18;;;;;;;16.48;9.05;;;;;;;16.97;80.01;98447.50;4441311;32;20121;-83
2023/05/20 03:33:45;;;;;;;18.70;9.25;;;;;;;16.20;85.83;98455.66;4441249;32;20093;-83
2023/05/20 03:36:12;;;;;;;15.48;7.18;;;;;;;16.86;82.58;98447.34;4439732;32;20125;-83
2023/05/20 03:38:39;;;;;;;15.98;7.03;;;;;;;18.37;66.69;98441.88;4441107;32;20169;-83
2023/05/20 03:41:06;;;;;;;10.13;4.93;;;;;;;17.83;66.71;98444.63;4441194;32;20125;-83
2023/05/20 03:43:33;;;;;;;12.60;6.00;;;;;;;17.61;67.22;98439.97;4440725;32;20104;-83
2023/05/20 03:46:00;;;;;;;10.77;4.82;;;;;;;17.24;68.98;98444.94;4441211;32;20089;-83
2023/05/20 03:48:27;;;;;;;10.88;5.35;;;;;;;17.47;68.34;98445.25;4440859;32;20148;-83
2023/05/20 03:50:54;;;;;;;11.85;5.55;;;;;;;18.06;66.19;98443.12;4440927;32;20093;-83
2023/05/20 03:53:21;;;;;;;10.43;5.12;;;;;;;18.05;65.94;98442.28;4440019;32;20128;-83
2023/05/20 03:55:48;;;;;;;11.60;5.75;;;;;;;18.28;64.77;98439.88;4441127;32;20085;-83
2023/05/20 03:58:15;;;;;;;12.07;5.85;;;;;;;18.52;63.98;98445.25;4440611;32;20478;-83
2023/05/20 04:00:42;;;;;;;12.88;6.82;;;;;;;19.00;61.75;98448.84;4440963;32;20089;-83
2023/05/20 04:03:09;;;;;;;12.88;6.75;;;;;;;18.85;63.37;98447.31;4441053;32;20401;-83
2023/05/20 04:05:36;;;;;;;14.30;7.55;;;;;;;18.68;67.68;98457.16;4440657;32;20073;-83
2023/05/20 04:08:03;;;;;;;14.10;7.78;;;;;;;19.30;67.52;98454.50;4440893;32;20107;-83
2023/05/20 04:10:31;;;;;;;13.45;7.60;;;;;;;19.85;65.52;98465.38;4440977;32;20135;-83
2023/05/20 04:12:58;;;;;;;14.95;7.80;;;;;;;20.69;63.47;98467.75;4440676;32;20104;-83
2023/05/20 04:15:28;;;;;;;14.30;7.57;;;;;;;20.74;64.18;98465.62;4440958;32;20112;-83
2023/05/20 04:17:55;;;;;;;13.50;7.47;;;;;;;20.41;65.27;98463.75;4440690;32;20136;-84
2023/05/20 04:20:23;;;;;;;14.50;7.57;;;;;;;21.76;61.82;98464.47;4440872;32;20109;-84
2023/05/20 04:22:51;;;;;;;12.40;6.65;;;;;;;22.19;59.44;98471.47;4440953;32;20148;-84
2023/05/20 04:25:18;;;;;;;11.82;6.80;;;;;;;22.69;56.49;98480.34;4440655;32;20433;-83
2023/05/20 04:27:45;;;;;;;11.35;5.87;;;;;;;22.19;56.74;98477.56;4440731;32;20161;-83
2023/05/20 04:30:12;;;;;;;14.13;6.18;;;;;;;21.96;56.79;98475.97;4440762;32;20176;-84
2023/05/20 04:32:40;;;;;;;11.75;5.50;;;;;;;21.96;56.43;98478.59;4440475;32;20093;-83
2023/05/20 04:35:10;;;;;;;11.15;5.82;;;;;;;20.98;60.23;98486.47;4440869;32;20154;-83
2023/05/20 04:37:37;;;;;;;10.45;5.35;;;;;;;21.53;59.11;98483.91;4439749;32;20119;-84
2023/05/20 04:40:05;;;;;;;15.45;6.50;;;;;;;21.66;59.54;98485.41;4440336;32;20097;-84
2023/05/20 04:42:36;;;;;;;11.77;6.20;;;;;;;20.98;63.02;98496.97;4439742;32;20146;-83
2023/05/20 04:45:04;;;;;;;12.57;6.97;;;;;;;21.92;60.79;98479.84;4440836;32;20424;-84
2023/05/20 04:47:37;;;;;;;16.00;6.87;;;;;;;23.08;56.80;98486.66;4440457;32;20085;-84
2023/05/20 04:50:09;;;;;;;12.23;6.50;;;;;;;23.79;55.13;98478.63;4440660;32;20132;-84
2023/05/20 04:52:46;;;;;;;14.05;7.30;;;;;;;24.15;54.28;98479.72;4440802;32;20126;-84
2023/05/20 04:55:14;;;;;;;14.02;7.03;;;;;;;23.01;58.27;98471.53;4440439;32;20156;-83
2023/05/20 04:57:42;;;;;;;15.55;7.40;;;;;;;21.59;65.19;98476.37;4439375;32;20169;-83
2023/05/20 05:00:11;;;;;;;13.80;7.90;;;;;;;20.89;70.82;98474.06;4440051;32;20096;-83
2023/05/20 05:02:38;;;;;;;15.95;8.38;;;;;;;21.47;69.88;98471.25;4440663;32;20103;-84
2023/05/20 05:05:06;;;;;;;12.88;7.43;;;;;;;21.59;70.03;98473.75;4440620;32;20509;-83
2023/05/20 05:07:33;;;;;;;15.27;7.00;;;;;;;22.33;66.01;98484.31;4440367;32;20109;-84
2023/05/20 05:10:00;;;;;;;12.50;6.85;;;;;;;23.22;61.57;98477.53;4440397;32;20098;-84
2023/05/20 05:12:27;;;;;;;12.98;6.28;;;;;;;24.12;56.67;98474.72;4440583;32;20081;-84
2023/05/20 05:14:54;;;;;;;12.68;6.12;;;;;;;24.84;54.00;98475.13;4440151;32;20439;-84
2023/05/20 05:17:21;;;;;;;12.10;6.35;;;;;;;25.71;52.52;98475.53;4440512;32;20127;-84
2023/05/20 05:19:48;;;;;;;15.07;6.55;;;;;;;27.06;48.24;98487.44;4440195;32;20097;-84
2023/05/20 05:22:15;;;;;;;13.52;6.00;;;;;;;28.12;46.09;98481.56;4439013;32;20089;-84
2023/05/20 05:24:42;;;;;;;19.67;7.97;;;;;;;23.43;57.65;98480.09;4439312;32;20117;-83
2023/05/20 05:27:09;;;;;;;14.10;7.68;;;;;;;23.25;60.29;98484.31;4440433;32;20123;-83
2023/05/20 05:29:36;;;;;;;16.98;7.62;;;;;;;21.40;69.00;98477.97;4439791;32;20089;-83
2023/05/20 05:32:03;;;;;;;17.90;8.90;;;;;;;22.14;68.87;98484.19;4439233;32;20103;-83
2023/05/20 05:34:30;;;;;;;16.73;8.20;;;;;;;20.83;72.69;98485.03;4440242;32;20108;-83
2023/05/20 05:36:56;;;;;;;14.98;7.80;;;;;;;21.23;73.86;98468.78;4439939;32;20156;-83
2023/05/20 05:39:23;;;;;;;15.73;8.27;;;;;;;21.55;71.73;98474.94;4439420;32;20093;-83
2023/05/20 05:41:50;;;;;;;13.88;7.45;;;;;;;20.91;75.98;98472.16;4440154;32;20090;-83
2023/05/20 05:44:17;;;;;;;17.67;8.18;;;;;;;20.56;78.60;98476.69;4439833;32;20454;-83
2023/05/20 05:46:44;;;;;;;19.52;8.90;;;;;;;21.27;76.25;98473.72;4439975;32;20141;-83
2023/05/20 05:49:11;;;;;;;16.10;7.82;;;;;;;20.36;79.29;98479.00;4439480;32;20105;-83
2023/05/20 05:51:38;;;;;;;15.18;7.90;;;;;;;21.34;75.58;98476.66;4440279;32;20103;-83
2023/05/20 05:54:05;;;;;;;15.18;7.15;;;;;;;20.75;79.73;98483.03;4440034;32;20107;-83
2023/05/20 05:56:32;;;;;;;19.37;9.27;;;;;;;21.02;75.30;98487.06;4439698;32;20093;-83
2023/05/20 05:58:59;;;;;;;19.87;9.57;;;;;;;21.17;76.02;98491.13;4439565;32;20167;-81
2023/05/20 06:01:26;;;;;;;14.87;8.57;;;;;;;21.35;74.46;98483.56;4439736;32;20089;-83
2023/05/20 06:03:53;;;;;;;18.60;10.25;;;;;;;21.95;73.07;98482.19;4439559;32;20108;-83
2023/05/20 06:06:20;;;;;;;17.87;9.98;;;;;;;22.22;71.48;98486.97;4439775;32;20102;-83
2023/05/20 06:08:47;;;;;;;21.50;9.50;;;;;;;21.46;76.00;98480.09;4439654;32;20089;-83
2023/05/20 06:11:14;;;;;;;18.20;9.50;;;;;;;21.12;76.45;98495.03;4439303;32;20089;-83
2023/05/20 06:13:41;;;;;;;19.00;9.63;;;;;;;21.36;75.57;98486.06;4439718;32;20086;-83
2023/05/20 06:16:08;;;;;;;18.73;10.23;;;;;;;21.01;77.29;98486.22;4439731;32;20108;-83
2023/05/20 06:18:35;;;;;;;18.87;10.32;;;;;;;21.34;76.24;98487.16;4439132;32;20113;-83
2023/05/20 06:21:02;;;;;;;17.80;9.85;;;;;;;21.77;74.81;98487.16;4439762;32;20112;-83
2023/05/20 06:23:29;;;;;;;15.35;8.57;;;;;;;22.33;71.34;98488.72;4439623;32;20157;-83
2023/05/20 06:25:58;;;;;;;19.33;10.52;;;;;;;21.50;75.41;98487.62;4439240;32;20354;-84
2023/05/20 06:28:25;;;;;;;16.55;6.35;;;;;;;21.99;71.38;98490.66;4439439;32;20097;-83
2023/05/20 06:30:56;;;;;;;19.30;9.73;;;;;;;22.31;70.66;98495.91;4438199;32;20164;-83
2023/05/20 06:33:26;;;;;;;17.05;8.77;;;;;;;21.35;76.78;98504.56;4439218;32;20081;-83
2023/05/20 06:35:54;;;;;;;17.10;9.77;;;;;;;21.74;73.84;98484.78;4439425;32;20090;-83
2023/05/20 06:38:21;;;;;;;18.48;9.40;;;;;;;21.31;77.42;98476.91;4439056;32;20097;-83
2023/05/20 06:40:48;;;;;;;18.83;11.05;;;;;;;21.67;75.27;98492.31;4439381;32;20130;-83
2023/05/20 06:43:16;;;;;;;14.45;7.65;;;;;;;21.98;72.28;98489.81;4439253;32;20089;-83
2023/05/20 06:45:43;;;;;;;21.02;12.57;;;;;;;22.34;70.45;98490.41;4438873;32;20141;-84
2023/05/20 06:48:10;;;;;;;18.92;11.07;;;;;;;22.76;68.78;98496.47;4437957;32;20135;-84
2023/05/20 06:50:37;;;;;;;12.43;6.78;;;;;;;23.16;68.23;98482.50;4439360;32;20089;-84
2023/05/20 06:53:04;;;;;;;16.98;9.35;;;;;;;22.59;69.75;98490.00;4440055;32;20596;-83
2023/05/20 06:55:31;;;;;;;18.48;11.52;;;;;;;23.07;68.87;98479.72;4441481;32;20093;-84
2023/05/20 06:57:58;;;;;;;16.73;10.07;;;;;;;23.30;67.04;98469.81;4441487;32;20085;-83
2023/05/20 07:00:25;;;;;;;18.70;10.48;;;;;;;22.49;71.12;98468.06;4439386;32;20089;-83
2023/05/20 07:02:52;;;;;;;15.95;9.40;;;;;;;23.28;68.21;98469.09;4441460;32;20189;-84
2023/05/20 07:05:19;;;;;;;17.35;10.18;;;;;;;23.87;65.14;98472.66;4441434;32;20102;-84
2023/05/20 07:07:46;;;;;;;19.00;11.15;;;;;;;24.08;64.67;98480.41;4441145;32;20117;-84
2023/05/20 07:10:13;;;;;;;18.83;10.50;;;;;;;24.38;65.08;98482.91;4441114;32;20093;-84
2023/05/20 07:12:40;;;;;;;15.95;9.90;;;;;;;24.36;63.56;98474.31;4441382;32;20149;-84
2023/05/20 07:15:08;;;;;;;22.00;10.18;;;;;;;24.90;62.63;98474.56;4441007;32;20097;-83
2023/05/20 07:17:35;;;;;;;18.05;9.48;;;;;;;25.09;62.19;98475.34;4441243;32;20148;-83
2023/05/20 07:20:03;;;;;;;18.50;9.50;;;;;;;24.44;62.18;98463.03;4441271;32;20093;-83
2023/05/20 07:22:30;;;;;;;14.43;8.48;;;;;;;24.43;63.75;98464.84;4441099;32;20077;-83
2023/05/20 07:24:58;;;;;;;17.12;9.90;;;;;;;24.01;65.74;98456.41;4441172;32;20133;-83
2023/05/20 07:27:25;;;;;;;16.65;9.13;;;;;;;24.73;60.75;98462.94;4440928;32;20141;-84
2023/05/20 07:29:52;;;;;;;16.08;10.18;;;;;;;24.36;64.28;98470.84;4441033;32;20081;-84
2023/05/20 07:32:19;;;;;;;17.33;9.82;;;;;;;24.95;61.25;98449.38;4441133;32;20334;-84
2023/05/20 07:34:46;;;;;;;14.98;9.35;;;;;;;24.61;61.78;98450.91;4441001;32;20166;-83
2023/05/20 07:37:13;;;;;;;15.45;9.35;;;;;;;24.53;62.68;98455.09;4441231;32;20089;-84
2023/05/20 07:39:40;;;;;;;15.65;9.45;;;;;;;24.48;63.53;98454.72;4440957;32;20105;-83
2023/05/20 07:42:07;;;;;;;17.33;8.75;;;;;;;25.53;58.65;98450.91;4440961;32;20074;-83
2023/05/20 07:44:34;;;;;;;16.20;8.45;;;;;;;25.23;59.49;98450.25;4441299;32;20109;-84
2023/05/20 07:47:02;;;;;;;16.42;9.43;;;;;;;25.19;62.98;98445.38;4441244;32;20163;-84
2023/05/20 07:49:29;;;;;;;15.18;8.88;;;;;;;24.68;61.21;98447.56;4440590;32;20108;-84
2023/05/20 07:51:55;;;;;;;16.05;9.35;;;;;;;25.11;63.09;98443.50;4441176;32;20442;-84
2023/05/20 07:54:23;;;;;;;18.52;9.30;;;;;;;25.80;61.20;98450.00;4441091;32;20093;-84
2023/05/20 07:56:50;;;;;;;17.35;9.52;;;;;;;24.93;62.11;98461.91;4440773;32;20101;-84
2023/05/20 07:59:17;;;;;;;14.60;7.10;;;;;;;25.22;60.13;98450.41;4439666;32;20520;-84
2023/05/20 08:01:44;;;;;;;20.58;9.38;;;;;;;25.30;60.20;98445.19;4439608;32;20073;-84
2023/05/20 08:04:11;;;;;;;16.12;8.27;;;;;;;25.45;58.83;98448.16;4440606;32;20151;-83
2023/05/20 08:06:38;;;;;;;17.45;7.60;;;;;;;25.12;60.11;98447.81;4441000;32;20109;-83
2023/05/20 08:09:06;;;;;;;15.98;8.68;;;;;;;24.27;63.96;98440.84;4440811;32;20103;-84
2023/05/20 08:11:33;;;;;;;15.68;8.70;;;;;;;25.70;57.15;98428.09;4440725;32;20107;-83
2023/05/20 08:14:00;;;;;;;15.05;8.30;;;;;;;26.73;53.92;98441.41;4440902;32;20103;-84
2023/05/20 08:16:27;;;;;;;15.27;8.43;;;;;;;26.25;55.18;98434.81;4440783;32;20463;-83
2023/05/20 08:18:54;;;;;;;14.32;7.12;;;;;;;26.09;54.29;98433.88;4440894;32;20135;-84
2023/05/20 08:21:21;;;;;;;16.30;8.57;;;;;;;25.32;60.84;98441.44;4440968;32;20089;-83
2023/05/20 08:23:48;;;;;;;15.23;8.48;;;;;;;25.98;56.01;98420.91;4440649;32;20536;-84
2023/05/20 08:26:15;;;;;;;16.92;9.18;;;;;;;25.12;59.82;98420.59;4440915;32;20157;-83
2023/05/20 08:28:42;;;;;;;20.27;9.25;;;;;;;25.07;61.59;98427.12;4440853;32;20487;-84
2023/05/20 08:31:09;;;;;;;15.73;8.68;;;;;;;24.75;60.38;98435.44;4439363;32;20590;-84
2023/05/20 08:33:36;;;;;;;14.45;8.70;;;;;;;25.14;58.39;98423.91;4440951;32;20376;-84
2023/05/20 08:36:03;;;;;;;13.68;7.90;;;;;;;25.35;58.50;98422.63;4440870;32;20101;-84
2023/05/20 08:38:30;;;;;;;15.57;8.05;;;;;;;25.22;57.48;98421.34;4440358;32;20163;-84
2023/05/20 08:40:57;;;;;;;14.35;8.07;;;;;;;24.72;59.47;98421.72;4440894;32;20077;-84
2023/05/20 08:43:25;;;;;;;11.20;5.68;;;;;;;25.91;57.73;98423.34;4440792;32;20166;-84
2023/05/20 08:45:52;;;;;;;13.30;8.02;;;;;;;25.45;56.40;98421.75;4440417;32;20120;-84
2023/05/20 08:48:22;;;;;;;13.45;7.55;;;;;;;25.99;56.20;98423.41;4440718;32;20179;-84
2023/05/20 08:50:50;;;;;;;14.07;7.15;;;;;;;26.39;53.48;98430.00;4439596;32;20108;-84
2023/05/20 08:53:18;;;;;;;15.68;8.25;;;;;;;26.00;58.28;98429.53;4439246;32;20420;-84
2023/05/20 08:55:47;;;;;;;15.02;8.52;;;;;;;25.43;57.88;98429.81;4439558;32;20119;-83
2023/05/20 08:58:16;;;;;;;16.75;8.23;;;;;;;24.94;61.98;98426.59;4440545;32;20512;-84
2023/05/20 09:00:43;;;;;;;16.45;8.52;;;;;;;25.02;60.58;98418.81;4440136;32;20086;-84
2023/05/20 09:03:10;;;;;;;15.50;8.95;;;;;;;25.13;58.94;98422.25;4440551;32;20139;-84
2023/05/20 09:05:37;;;;;;;15.57;8.80;;;;;;;25.90;59.59;98419.03;4440357;32;20093;-84
2023/05/20 09:08:07;;;;;;;13.82;8.13;;;;;;;26.12;56.01;98417.72;4440591;32;20081;-83
2023/05/20 09:10:36;;;;;;;14.82;7.87;;;;;;;25.30;59.28;98410.84;4440669;32;20160;-83
2023/05/20 09:13:05;;;;;;;14.80;8.20;;;;;;;24.91;61.32;98405.78;4439603;32;20105;-83
2023/05/20 09:15:33;;;;;;;15.02;8.32;;;;;;;24.96;63.69;98408.81;4440246;32;20088;-84
2023/05/20 09:18:05;;;;;;;14.32;7.10;;;;;;;25.56;61.32;98403.03;4440492;32;20081;-83
2023/05/20 09:20:35;;;;;;;17.40;8.35;;;;;;;25.05;59.83;98404.47;4440114;32;20429;-83
2023/05/20 09:23:05;;;;;;;14.80;8.38;;;;;;;24.81;64.38;98405.00;4440535;32;20117;-83
2023/05/20 09:25:32;;;;;;;14.93;8.75;;;;;;;24.73;63.52;98397.81;4440569;32;20150;-83
2023/05/20 09:28:00;;;;;;;18.42;8.80;;;;;;;25.07;64.02;98403.34;4440002;32;20444;-83
2023/05/20 09:30:27;;;;;;;17.40;9.57;;;;;;;24.36;65.62;98411.03;4439006;32;20082;-83
2023/05/20 09:32:55;;;;;;;14.60;7.93;;;;;;;24.13;64.96;98405.19;4440355;32;20085;-83
2023/05/20 09:35:23;;;;;;;13.80;7.87;;;;;;;25.50;61.54;98404.44;4440009;32;20149;-84
2023/05/20 09:37:55;;;;;;;15.50;7.47;;;;;;;25.33;58.01;98397.38;4426423;32;20089;-84
2023/05/20 09:40:28;;;;;;;13.77;7.87;;;;;;;25.70;57.84;98399.87;4439205;32;20466;-84
2023/05/20 09:43:09;;;;;;;13.52;7.40;;;;;;;25.90;56.70;98401.34;4439960;32;20101;-84
2023/05/20 09:45:37;;;;;;;14.50;7.53;;;;;;;25.54;56.32;98397.06;4439027;32;20495;-84
2023/05/20 09:48:05;;;;;;;15.15;8.57;;;;;;;25.80;57.64;98403.25;4439663;32;20097;-83
2023/05/20 09:50:32;;;;;;;13.80;8.32;;;;;;;25.43;57.42;98397.28;4439978;32;20093;-83
2023/05/20 09:53:02;;;;;;;15.68;8.75;;;;;;;25.13;59.48;98386.09;4438834;32;20133;-83
2023/05/20 09:55:30;;;;;;;13.25;7.22;;;;;;;25.42;62.86;98379.78;4439819;32;20112;-84
2023/05/20 09:58:01;;;;;;;14.13;6.85;;;;;;;26.10;58.01;98387.94;4440078;32;20432;-83
2023/05/20 10:00:28;;;;;;;14.27;6.97;;;;;;;25.37;54.21;98375.78;4438576;32;20081;-83
2023/05/20 10:02:55;;;;;;;14.20;7.68;;;;;;;25.68;58.18;98386.78;4439517;32;20121;-84
2023/05/20 10:05:34;;;;;;;13.88;7.85;;;;;;;26.06;55.66;98378.69;4439964;32;20114;-84
2023/05/20 10:08:22;;;;;;;14.90;6.78;;;;;;;25.46;59.40;98374.03;4438872;32;20142;-84
2023/05/20 10:11:16;;;;;;;12.93;6.68;;;;;;;26.36;54.72;98383.47;4438310;32;20074;-84
2023/05/20 10:14:04;;;;;;;13.52;6.57;;;;;;;26.78;52.98;98394.13;4437780;32;20104;-84
2023/05/20 10:16:49;;;;;;;12.02;6.43;;;;;;;25.97;48.96;98377.78;4439505;32;20093;-84
2023/05/20 10:19:29;;;;;;;13.13;6.60;;;;;;;26.56;52.42;98381.44;4438460;32;20109;-84
2023/05/20 10:21:57;;;;;;;13.93;6.20;;;;;;;26.70;55.16;98383.53;4439696;32;20109;-84
2023/05/20 10:24:34;;;;;;;12.43;6.25;;;;;;;27.02;50.29;98376.72;4439335;32;20488;-84
2023/05/20 10:27:03;;;;;;;12.70;6.40;;;;;;;26.56;48.42;98372.69;4441863;32;20690;-83
2023/05/20 10:29:54;;;;;;;11.23;6.07;;;;;;;26.65;50.45;98379.69;4441552;32;20145;-84
2023/05/20 10:32:30;;;;;;;11.15;6.00;;;;;;;26.98;48.58;98375.31;4441794;32;20712;-84
2023/05/20 10:35:03;;;;;;;9.13;4.10;;;;;;;26.81;50.54;98369.16;4441693;32;20112;-84
2023/05/20 10:37:33;;;;;;;13.57;7.00;;;;;;;26.72;50.04;98375.41;4441461;32;20196;-84
2023/05/20 10:40:10;;;;;;;10.93;5.70;;;;;;;27.31;49.60;98370.94;4441567;32;20104;-84
2023/05/20 10:42:37;;;;;;;15.48;7.00;;;;;;;27.25;48.60;98368.97;4441808;32;20128;-83
2023/05/20 10:45:05;;;;;;;14.05;7.10;;;;;;;27.13;51.48;98370.28;4441239;32;20108;-83
2023/05/20 10:47:33;;;;;;;11.35;4.93;;;;;;;27.19;51.04;98370.44;4440463;32;20105;-84
2023/05/20 10:50:01;;;;;;;14.52;6.55;;;;;;;27.09;50.72;98372.41;4440259;32;20084;-84
2023/05/20 10:52:32;;;;;;;10.50;6.28;;;;;;;26.89;49.48;98369.16;4441220;32;20089;-84
2023/05/20 10:55:00;;;;;;;12.43;6.40;;;;;;;27.27;49.68;98362.50;4441588;32;20441;-84
2023/05/20 10:57:28;;;;;;;14.20;7.03;;;;;;;27.31;49.67;98369.13;4441428;32;20112;-83
2023/05/20 10:59:55;;;;;;;13.20;6.72;;;;;;;26.69;50.28;98371.28;4440880;32;20123;-83
2023/05/20 11:02:25;;;;;;;12.93;7.20;;;;;;;26.92;52.92;98368.88;4441565;32;20128;-83
2023/05/20 11:04:55;;;;;;;11.88;6.18;;;;;;;27.02;51.61;98364.28;4441287;32;20158;-83
2023/05/20 11:07:26;;;;;;;14.32;6.50;;;;;;;26.41;54.85;98370.66;4441485;32;20113;-83
2023/05/20 11:09:57;;;;;;;12.57;7.22;;;;;;;26.58;51.70;98366.25;4441175;32;20180;-83
2023/05/20 11:12:26;;;;;;;12.85;7.03;;;;;;;27.17;49.71;98363.66;4441199;32;20668;-83
2023/05/20 11:14:53;;;;;;;11.98;6.53;;;;;;;26.52;50.34;98373.00;4441355;32;20152;-83
2023/05/20 11:17:20;;;;;;;15.65;7.32;;;;;;;26.89;50.30;98365.69;4441399;32;20112;-83
2023/05/20 11:19:47;;;;;;;12.35;6.57;;;;;;;26.36;50.79;98370.25;4439681;32;20105;-83
2023/05/20 11:22:14;;;;;;;11.65;6.75;;;;;;;26.46;50.36;98362.22;4440253;32;20090;-83
2023/05/20 11:24:41;;;;;;;12.48;6.35;;;;;;;26.22;49.98;98361.09;4441338;32;20093;-83
2023/05/20 11:27:08;;;;;;;13.62;6.80;;;;;;;25.99;50.36;98362.59;4440996;32;20093;-83
2023/05/20 11:29:36;;;;;;;12.23;6.57;;;;;;;26.86;48.29;98358.91;4441392;32;20124;-83